»·PEaware :: N480ES KRDD-KFOT

N480ES :: KRDD-KFOT

FLIGHT INFORMATION

Flight Status: Arrived
Operator: Privately registered:
United States
More flights under this callsign
Pilot: Tom L. (6372)
Aircraft: MITSUBISHI MU-2 MARQUISE
(MU2)
More flights by this aircraft type
Origin: KRDD Redding Mun
United States
Destination: KFOT Rohnerville
United States
More flights between these airports :: More routes between these airports
Route: KENDL3 FOT
File this flight plan on PilotEdge
Remarks:
Altitude:
(Current/Filed)
14,000ft
Speed:
(Current/Filed)
235kts
Departed: 31-Mar-19 10:42 AM
Arrived: 31-Mar-19 11:11 AM
Distance/Time
Traveled:
84nm/0:29
Distance/Time
To Go:
Arrived

Flight Plot

Page will automatically refresh every two minutes.

Flight plan parsing failed; only flown route is shown


Map Options




Map Legend


Flown Route
Filed Route
Departure Airport
Arrival Airport
Navaid (VOR, NDB)
Fix

Horizontal Profiles

Position Reports

Time Latitude Longitude Heading Altitude Ground
Speed
31-Mar-19 10:20 40.506838 -122.299154 70 504ft 0kts
31-Mar-19 10:21 40.506838 -122.299154 70 504ft 0kts
31-Mar-19 10:22 40.506838 -122.299154 70 504ft 0kts
31-Mar-19 10:23 40.506838 -122.299153 69 504ft 0kts
31-Mar-19 10:24 40.506840 -122.299147 69 504ft 0kts
31-Mar-19 10:25 40.506843 -122.299136 69 504ft 0kts
31-Mar-19 10:26 40.506846 -122.299124 69 504ft 0kts
31-Mar-19 10:27 40.506850 -122.299112 69 504ft 0kts
31-Mar-19 10:28 40.506853 -122.299101 69 504ft 0kts
31-Mar-19 10:29 40.506856 -122.299089 68 504ft 0kts
31-Mar-19 10:30 40.506860 -122.299078 68 504ft 0kts
31-Mar-19 10:31 40.506863 -122.299066 68 504ft 0kts
31-Mar-19 10:32 40.506866 -122.299055 68 504ft 0kts
31-Mar-19 10:33 40.506613 -122.298594 169 504ft 6kts
31-Mar-19 10:34 40.504042 -122.298267 175 504ft 1kts
31-Mar-19 10:35 40.503381 -122.298445 213 504ft 1kts
31-Mar-19 10:36 40.503172 -122.298429 59 504ft 0kts
31-Mar-19 10:37 40.503177 -122.298418 59 504ft 0kts
31-Mar-19 10:38 40.502511 -122.297011 136 504ft 6kts
31-Mar-19 10:39 40.501567 -122.295895 141 504ft 0kts
31-Mar-19 10:40 40.501393 -122.295712 140 504ft 3kts
31-Mar-19 10:41 40.508298 -122.294829 359 585ft 127kts
31-Mar-19 10:42 40.551087 -122.296713 355 3954ft 168kts
31-Mar-19 10:43 40.586064 -122.259247 79 7343ft 182kts
31-Mar-19 10:44 40.547879 -122.232701 222 9087ft 214kts
31-Mar-19 10:45 40.509822 -122.288604 230 11150ft 216kts
31-Mar-19 10:46 40.465556 -122.347298 230 12459ft 226kts
31-Mar-19 10:47 40.435479 -122.418787 243 13776ft 224kts
31-Mar-19 10:48 40.398965 -122.490847 239 14008ft 247kts
31-Mar-19 10:49 40.359381 -122.565946 239 14010ft 252kts
31-Mar-19 10:50 40.319309 -122.641664 239 14013ft 252kts
31-Mar-19 10:51 40.279134 -122.717531 239 14017ft 253kts
31-Mar-19 10:52 40.264526 -122.800680 291 14028ft 240kts
31-Mar-19 10:53 40.288614 -122.882158 291 14021ft 240kts
31-Mar-19 10:54 40.312451 -122.964197 291 14039ft 240kts
31-Mar-19 10:55 40.336474 -123.047298 291 14040ft 243kts
31-Mar-19 10:56 40.360167 -123.129542 291 14044ft 240kts
31-Mar-19 10:57 40.383678 -123.211432 291 14047ft 240kts
31-Mar-19 10:58 40.407203 -123.293620 291 14049ft 240kts
31-Mar-19 10:59 40.430610 -123.375658 290 14050ft 240kts
31-Mar-19 11:00 40.454031 -123.458007 290 14051ft 240kts
31-Mar-19 11:01 40.477304 -123.540062 290 14046ft 240kts
31-Mar-19 11:02 40.501637 -123.626454 290 12544ft 270kts
31-Mar-19 11:03 40.496193 -123.721768 251 10157ft 249kts
31-Mar-19 11:04 40.475483 -123.803407 250 7743ft 226kts
31-Mar-19 11:05 40.463649 -123.883492 287 5357ft 227kts
31-Mar-19 11:06 40.490750 -123.955329 296 3366ft 206kts
31-Mar-19 11:07 40.513045 -124.015061 293 2765ft 161kts
31-Mar-19 11:08 40.529777 -124.069036 293 2104ft 144kts
31-Mar-19 11:09 40.542176 -124.110973 296 854ft 108kts
31-Mar-19 11:10 40.554498 -124.133615 307 357ft 21kts
31-Mar-19 11:11 40.557543 -124.137828 93 357ft 11kts
31-Mar-19 11:12 40.554323 -124.132056 78 357ft 8kts
31-Mar-19 11:13 40.553590 -124.129282 68 357ft 4kts
31-Mar-19 11:14 40.553598 -124.130085 276 357ft 2kts
31-Mar-19 11:15 40.553602 -124.130127 278 357ft 0kts
31-Mar-19 11:16 40.553602 -124.130127 278 357ft 0kts
31-Mar-19 11:17 40.553602 -124.130127 278 357ft 0kts
31-Mar-19 11:18 40.553602 -124.130127 278 357ft 0kts
31-Mar-19 11:19 40.553602 -124.130127 278 357ft 0kts
31-Mar-19 11:20 40.553602 -124.130127 278 357ft 0kts
31-Mar-19 11:21 40.553602 -124.130127 278 357ft 0kts
31-Mar-19 11:22 40.553602 -124.130127 278 357ft 0kts
31-Mar-19 11:23 40.553602 -124.130127 278 357ft 0kts
31-Mar-19 11:24 40.553602 -124.130127 278 357ft 0kts

Navigation Log

Ident Type
Flight plan parsing failed, navigation log unavailable